Time;durP1;ratioP1;P1;durP2;ratioP2;P2;SDS_P1;SDS_P2;PMS_P1;PMS_P2;Temp;Humidity;BMP_temperature;BMP_pressure;BME280_temperature;BME280_humidity;BME280_pressure;Samples;Min_cycle;Max_cycle;Signal;HPM_P1;HPM_P2
2021/12/13 00:02:05;;;;;;;22.65;14.20;;;6.30;99.90;;;;;;5026630;28;20425;-59
2021/12/13 00:04:48;;;;;;;22.15;14.13;;;6.30;99.90;;;;;;5026695;28;20025;-61
2021/12/13 00:07:21;;;;;;;24.63;15.25;;;6.30;99.90;;;;;;5027594;28;20067;-56
2021/12/13 00:09:49;;;;;;;22.60;14.65;;;6.10;99.90;;;;;;5028497;28;20030;-58
2021/12/13 00:12:29;;;;;;;19.42;14.07;;;6.20;99.90;;;;;;5027409;28;20073;-61
2021/12/13 00:14:57;;;;;;;27.00;14.98;;;6.20;99.90;;;;;;5020409;28;20095;-56
2021/12/13 00:17:40;;;;;;;24.48;14.05;;;6.20;99.90;;;;;;5029914;28;20413;-64
2021/12/13 00:20:14;;;;;;;22.55;14.40;;;6.20;99.90;;;;;;5028564;28;20052;-66
2021/12/13 00:22:45;;;;;;;21.08;13.32;;;6.20;99.90;;;;;;5022373;28;20391;-66
2021/12/13 00:25:17;;;;;;;25.67;14.57;;;6.20;99.90;;;;;;5011391;28;20040;-59
2021/12/13 00:27:49;;;;;;;22.75;13.52;;;6.10;99.90;;;;;;5009472;28;20476;-62
2021/12/13 00:30:26;;;;;;;23.92;14.57;;;6.10;99.90;;;;;;5013239;28;20030;-60
2021/12/13 00:33:27;;;;;;;25.25;13.98;;;6.10;99.90;;;;;;5014280;28;20117;-60
2021/12/13 00:36:03;;;;;;;20.75;13.38;;;6.00;99.90;;;;;;5014567;28;20034;-63
2021/12/13 00:38:33;;;;;;;25.00;14.88;;;6.10;99.90;;;;;;5015303;28;20053;-60
2021/12/13 00:41:08;;;;;;;23.45;13.73;;;6.10;99.90;;;;;;5014517;28;20041;-67
2021/12/13 00:43:45;;;;;;;23.92;13.15;;;6.20;99.90;;;;;;5013595;28;20032;-55
2021/12/13 00:46:13;;;;;;;18.13;13.68;;;6.20;99.90;;;;;;5015039;28;20463;-53
2021/12/13 00:48:44;;;;;;;21.23;13.48;;;6.20;99.90;;;;;;5012652;28;20033;-68
2021/12/13 00:51:12;;;;;;;21.38;13.73;;;6.20;99.90;;;;;;5014773;28;20060;-63
2021/12/13 00:53:44;;;;;;;21.02;13.10;;;6.30;99.90;;;;;;5014880;28;20030;-64
2021/12/13 00:57:01;;;;;;;21.73;12.88;;;6.30;99.90;;;;;;5015254;28;20037;-65
2021/12/13 00:59:51;;;;;;;23.38;12.20;;;6.30;99.90;;;;;;5013088;28;20070;-55
2021/12/13 01:02:28;;;;;;;18.48;12.20;;;6.40;99.90;;;;;;5014998;28;20030;-55
2021/12/13 01:05:08;;;;;;;16.92;11.73;;;6.40;99.90;;;;;;5014143;28;20029;-56
2021/12/13 01:07:53;;;;;;;17.50;11.23;;;6.50;99.90;;;;;;5014566;28;20033;-59
2021/12/13 01:10:40;;;;;;;19.27;13.93;;;6.50;99.90;;;;;;5014203;28;20018;-66
2021/12/13 01:13:23;;;;;;;20.10;12.40;;;6.40;99.90;;;;;;5013137;28;20092;-64
2021/12/13 01:16:51;;;;;;;18.63;12.15;;;6.40;99.90;;;;;;5013894;28;20033;-65
2021/12/13 01:19:47;;;;;;;16.98;12.25;;;6.30;99.90;;;;;;5012432;28;20053;-63
2021/12/13 01:25:42;;;;;;;17.52;11.88;;;6.40;99.90;;;;;;5013659;28;20052;-59
2021/12/13 01:28:22;;;;;;;18.98;10.70;;;6.40;99.90;;;;;;5013177;28;20414;-58
2021/12/13 01:30:55;;;;;;;19.17;11.23;;;6.50;99.90;;;;;;5013851;28;20124;-58
2021/12/13 01:33:24;;;;;;;18.27;10.90;;;6.60;99.90;;;;;;5014220;28;20022;-57
2021/12/13 01:35:54;;;;;;;15.52;10.88;;;6.60;99.90;;;;;;5012179;28;20033;-61
2021/12/13 01:38:34;;;;;;;19.15;11.98;;;6.50;99.90;;;;;;5013054;28;20022;-62
2021/12/13 01:41:08;;;;;;;17.65;10.82;;;6.50;99.90;;;;;;5013021;28;20026;-60
2021/12/13 01:43:38;;;;;;;19.40;10.45;;;6.60;99.90;;;;;;5013812;28;20034;-61
2021/12/13 01:46:04;;;;;;;18.65;10.02;;;6.50;99.90;;;;;;5013256;28;20034;-58
2021/12/13 01:48:39;;;;;;;19.08;11.27;;;6.60;99.90;;;;;;5013819;28;20037;-62
2021/12/13 01:51:11;;;;;;;17.60;9.90;;;6.50;99.90;;;;;;5013198;28;20018;-65
2021/12/13 01:53:39;;;;;;;;;;;6.60;99.90;;;;;;5014257;28;20029;-62
2021/12/13 01:56:34;;;;;;;15.15;10.70;;;6.50;99.90;;;;;;5013093;28;19905;-63
2021/12/13 01:59:06;;;;;;;15.68;10.18;;;6.50;99.90;;;;;;5012524;28;20038;-60
2021/12/13 02:01:33;;;;;;;19.48;9.73;;;6.50;99.90;;;;;;5013577;28;20041;-62
2021/12/13 02:04:05;;;;;;;16.30;10.60;;;6.50;99.90;;;;;;5012649;28;20026;-58
2021/12/13 02:06:37;;;;;;;18.50;10.05;;;6.60;99.90;;;;;;5013567;28;20036;-56
2021/12/13 02:09:16;;;;;;;17.63;10.38;;;6.50;99.90;;;;;;5012907;28;20054;-63
2021/12/13 02:11:45;;;;;;;14.15;10.40;;;6.50;99.90;;;;;;5013223;28;20103;-64
2021/12/13 02:14:16;;;;;;;18.70;10.90;;;6.60;99.90;;;;;;5012154;28;20022;-58
2021/12/13 02:16:59;;;;;;;17.58;10.13;;;6.60;99.90;;;;;;5013086;28;20026;-66
2021/12/13 02:19:34;;;;;;;15.55;11.32;;;6.60;99.90;;;;;;5011710;28;20042;-57
2021/12/13 02:22:33;;;;;;;15.32;10.10;;;6.50;99.90;;;;;;5012498;28;20034;-65
2021/12/13 02:25:17;;;;;;;13.20;9.63;;;6.60;99.90;;;;;;5011254;28;20129;-59
2021/12/13 02:27:54;;;;;;;17.45;10.70;;;6.60;99.90;;;;;;5011832;28;20468;-63
2021/12/13 02:30:40;;;;;;;14.85;9.93;;;6.60;99.90;;;;;;5012879;28;20032;-59
2021/12/13 02:33:08;;;;;;;13.77;9.20;;;6.60;99.90;;;;;;5012470;28;20044;-63
2021/12/13 02:35:39;;;;;;;15.05;10.43;;;6.70;99.90;;;;;;5013141;28;20048;-61
2021/12/13 02:38:08;;;;;;;15.90;10.63;;;6.60;99.90;;;;;;5012439;28;20363;-57
2021/12/13 02:40:35;;;;;;;13.95;9.93;;;6.70;99.90;;;;;;5012928;28;20137;-55
2021/12/13 02:43:01;;;;;;;19.33;10.85;;;6.70;99.90;;;;;;5012293;28;20026;-63
2021/12/13 02:45:42;;;;;;;15.07;11.18;;;6.70;99.90;;;;;;5012767;28;20052;-62
2021/12/13 02:48:41;;;;;;;13.32;9.48;;;6.70;99.90;;;;;;5012250;28;20038;-65
2021/12/13 02:51:15;;;;;;;17.00;9.93;;;6.70;99.90;;;;;;5011715;28;20081;-64
2021/12/13 02:53:44;;;;;;;17.48;11.00;;;6.80;99.90;;;;;;5011701;28;20460;-59
2021/12/13 02:56:11;;;;;;;16.38;9.18;;;6.70;99.90;;;;;;5011938;28;20498;-59
2021/12/13 02:58:40;;;;;;;14.68;10.48;;;6.70;99.90;;;;;;5012236;28;20084;-66
2021/12/13 03:01:18;;;;;;;15.48;9.82;;;6.80;99.90;;;;;;5012266;28;20045;-63
2021/12/13 03:03:47;;;;;;;13.63;9.20;;;6.80;99.90;;;;;;5012666;28;20037;-66
2021/12/13 03:06:26;;;;;;;15.63;9.82;;;6.90;99.90;;;;;;5012337;28;20076;-64
2021/12/13 03:08:58;;;;;;;13.55;10.25;;;6.80;99.90;;;;;;5011910;28;20034;-63
2021/12/13 03:11:30;;;;;;;16.95;10.55;;;6.90;99.90;;;;;;5011334;28;20074;-63
2021/12/13 03:14:18;;;;;;;16.15;10.02;;;6.80;99.90;;;;;;5011670;28;20072;-67
2021/12/13 03:17:27;;;;;;;16.85;11.18;;;6.80;99.90;;;;;;5012517;28;20045;-57
2021/12/13 03:20:31;;;;;;;16.85;10.77;;;6.80;99.90;;;;;;5009435;28;20486;-59
2021/12/13 03:23:10;;;;;;;17.33;9.80;;;6.80;99.90;;;;;;5011967;28;20103;-66
2021/12/13 03:26:14;;;;;;;16.52;10.80;;;6.80;99.90;;;;;;5012392;28;20038;-56
2021/12/13 03:29:07;;;;;;;14.32;10.25;;;6.70;99.90;;;;;;4994337;28;20034;-63
2021/12/13 03:31:40;;;;;;;19.83;10.88;;;6.80;99.90;;;;;;5012112;28;20038;-60
2021/12/13 03:34:08;;;;;;;15.50;10.85;;;6.70;99.90;;;;;;5011270;28;20034;-67
2021/12/13 03:36:42;;;;;;;16.33;10.85;;;6.70;99.90;;;;;;5012015;28;20026;-55
2021/12/13 03:39:11;;;;;;;17.05;10.68;;;6.70;99.90;;;;;;5011600;28;20254;-65
2021/12/13 03:41:42;;;;;;;17.42;10.93;;;6.70;99.90;;;;;;5011616;28;20448;-57
2021/12/13 03:44:12;;;;;;;17.60;11.52;;;6.60;99.90;;;;;;5010699;28;20022;-61
2021/12/13 03:46:40;;;;;;;16.42;10.85;;;6.60;99.90;;;;;;5012060;28;20164;-59
2021/12/13 03:49:08;;;;;;;15.95;11.07;;;6.60;99.90;;;;;;5009949;28;20538;-61
2021/12/13 03:51:40;;;;;;;17.13;11.70;;;6.60;99.90;;;;;;5011572;28;20035;-59
2021/12/13 03:54:08;;;;;;;17.08;12.70;;;6.60;99.90;;;;;;5009979;28;20030;-63
2021/12/13 03:56:38;;;;;;;16.73;11.90;;;6.60;99.90;;;;;;5010501;28;20117;-57
2021/12/13 03:59:13;;;;;;;20.00;12.43;;;6.60;99.90;;;;;;5011295;28;20018;-59
2021/12/13 04:01:55;;;;;;;17.27;11.30;;;6.60;99.90;;;;;;5010813;28;20116;-59
2021/12/13 04:04:27;;;;;;;15.82;11.57;;;6.60;99.90;;;;;;5013799;28;20030;-59
2021/12/13 04:06:58;;;;;;;19.67;12.05;;;6.60;99.90;;;;;;5014898;28;20483;-61
2021/12/13 04:09:26;;;;;;;17.52;12.07;;;6.60;99.90;;;;;;5015452;28;20061;-60
2021/12/13 04:11:55;;;;;;;16.92;12.10;;;6.50;99.90;;;;;;5015364;28;20133;-64
2021/12/13 04:14:32;;;;;;;15.77;12.15;;;6.40;99.90;;;;;;5015402;28;20391;-59
2021/12/13 04:17:21;;;;;;;21.23;12.48;;;6.50;99.90;;;;;;5014910;28;20037;-55
2021/12/13 04:19:46;;;;;;;17.70;12.27;;;6.50;99.90;;;;;;5015283;28;20053;-59
2021/12/13 04:22:14;;;;;;;22.77;13.00;;;6.40;99.90;;;;;;5014799;28;20053;-59
2021/12/13 04:24:48;;;;;;;23.75;14.73;;;6.40;99.90;;;;;;5015085;28;20391;-63
2021/12/13 04:27:38;;;;;;;21.08;11.63;;;6.40;99.90;;;;;;5014573;28;20026;-55
2021/12/13 04:30:24;;;;;;;23.63;13.18;;;6.40;99.90;;;;;;5014195;28;20363;-62
2021/12/13 04:32:56;;;;;;;21.88;13.90;;;6.40;99.90;;;;;;5015286;28;20111;-60
2021/12/13 04:35:23;;;;;;;;;;;6.30;99.90;;;;;;5014274;28;20037;-65
2021/12/13 04:37:53;;;;;;;20.20;12.82;;;6.30;99.90;;;;;;5015084;28;19945;-60
2021/12/13 04:40:34;;;;;;;20.65;12.80;;;6.30;99.90;;;;;;5013879;28;20022;-55
2021/12/13 04:43:11;;;;;;;21.83;12.50;;;6.40;99.90;;;;;;5014241;28;20022;-59
2021/12/13 04:45:41;;;;;;;20.10;13.13;;;6.40;99.90;;;;;;5014954;28;20132;-61
2021/12/13 04:48:11;;;;;;;25.70;13.77;;;6.50;99.90;;;;;;5012971;28;20057;-57
2021/12/13 04:50:51;;;;;;;18.58;12.98;;;6.40;99.90;;;;;;5014961;28;20101;-66
2021/12/13 04:53:24;;;;;;;21.05;12.77;;;6.50;99.90;;;;;;5014337;28;20029;-56
2021/12/13 04:55:52;;;;;;;23.38;12.15;;;6.60;99.90;;;;;;5013547;28;20460;-53
2021/12/13 04:58:19;;;;;;;19.73;12.40;;;6.70;99.90;;;;;;5014098;28;20064;-56
2021/12/13 05:00:51;;;;;;;19.50;12.70;;;6.60;99.90;;;;;;5014840;28;20038;-67
2021/12/13 05:03:21;;;;;;;18.48;13.02;;;6.70;99.90;;;;;;5014062;28;20076;-64
2021/12/13 05:05:47;;;;;;;17.45;11.63;;;6.70;99.90;;;;;;5013256;28;20030;-66
2021/12/13 05:08:16;;;;;;;18.10;11.95;;;6.70;99.90;;;;;;4996520;28;20104;-60
2021/12/13 05:10:46;;;;;;;16.65;11.85;;;6.80;99.90;;;;;;5014508;28;20033;-59
2021/12/13 05:13:25;;;;;;;21.20;12.10;;;6.80;99.90;;;;;;4996939;28;20026;-59
2021/12/13 05:16:00;;;;;;;17.98;11.77;;;6.80;99.90;;;;;;4995975;28;20036;-66
2021/12/13 05:18:30;;;;;;;19.63;11.82;;;6.80;99.90;;;;;;5013053;28;20399;-58
2021/12/13 05:21:13;;;;;;;20.33;12.77;;;6.80;99.90;;;;;;5012359;28;20036;-61
2021/12/13 05:23:48;;;;;;;21.10;12.38;;;6.70;99.90;;;;;;5013887;28;20033;-62
2021/12/13 05:26:28;;;;;;;21.63;13.07;;;6.60;99.90;;;;;;5013268;28;20504;-61
2021/12/13 05:28:54;;;;;;;20.00;12.27;;;6.60;99.90;;;;;;5014136;28;20120;-61
2021/12/13 05:31:24;;;;;;;17.02;12.02;;;6.70;99.90;;;;;;5013828;28;20201;-60
2021/12/13 05:33:53;;;;;;;16.25;11.63;;;6.70;99.90;;;;;;5013645;28;20371;-61
2021/12/13 05:36:23;;;;;;;18.30;12.10;;;6.70;99.90;;;;;;5012092;28;20060;-61
2021/12/13 05:38:59;;;;;;;18.20;12.55;;;6.80;99.90;;;;;;5014003;28;20037;-60
2021/12/13 05:41:27;;;;;;;22.02;12.43;;;6.60;99.90;;;;;;5013727;28;20017;-61
2021/12/13 05:43:57;;;;;;;22.38;12.35;;;6.60;99.90;;;;;;5013419;28;20029;-60
2021/12/13 05:46:48;;;;;;;22.73;12.25;;;6.70;99.90;;;;;;5012363;28;20041;-60
2021/12/13 05:49:24;;;;;;;16.45;11.60;;;6.60;99.90;;;;;;5013054;28;20029;-61
2021/12/13 05:51:55;;;;;;;18.83;11.40;;;6.70;99.90;;;;;;5014008;28;20384;-61
2021/12/13 05:54:33;;;;;;;16.88;11.65;;;6.70;99.90;;;;;;5012940;28;20041;-61
2021/12/13 05:57:07;;;;;;;15.20;10.68;;;6.70;99.90;;;;;;5012578;28;20037;-62
2021/12/13 05:59:38;;;;;;;17.73;11.30;;;6.70;99.90;;;;;;5011509;28;20041;-61
2021/12/13 06:02:14;;;;;;;15.85;10.82;;;6.80;99.90;;;;;;5011613;28;20033;-61
2021/12/13 06:04:45;;;;;;;16.60;10.70;;;6.80;99.90;;;;;;5011893;28;20030;-60
2021/12/13 06:07:32;;;;;;;18.33;10.65;;;6.80;99.90;;;;;;5011360;28;20483;-60
2021/12/13 06:10:15;;;;;;;20.05;11.00;;;6.70;99.90;;;;;;5011217;28;20029;-62
2021/12/13 06:12:59;;;;;;;16.42;10.80;;;6.80;99.90;;;;;;5013101;28;20022;-61
2021/12/13 06:15:28;;;;;;;14.15;10.85;;;6.60;99.90;;;;;;5012731;28;20026;-61
2021/12/13 06:18:16;;;;;;;19.60;11.65;;;6.60;99.90;;;;;;5012556;28;20084;-60
2021/12/13 06:21:12;;;;;;;19.73;11.77;;;6.60;99.90;;;;;;5011184;28;20033;-61
2021/12/13 06:23:39;;;;;;;17.23;11.73;;;6.60;99.90;;;;;;5012604;28;20104;-61
2021/12/13 06:26:10;;;;;;;19.00;11.35;;;6.50;99.90;;;;;;5012101;28;20060;-61
2021/12/13 06:28:42;;;;;;;21.23;12.82;;;6.50;99.90;;;;;;5010237;28;20128;-60
2021/12/13 06:31:12;;;;;;;19.13;11.93;;;6.60;99.90;;;;;;5010339;28;20072;-60
2021/12/13 06:33:45;;;;;;;17.30;10.40;;;6.60;99.90;;;;;;5012357;28;20028;-61
2021/12/13 06:36:11;;;;;;;17.95;11.98;;;6.70;99.90;;;;;;5011668;28;20026;-61
2021/12/13 06:38:53;;;;;;;16.30;11.30;;;6.80;99.90;;;;;;5012259;28;20072;-66
2021/12/13 06:41:32;;;;;;;16.30;11.27;;;6.70;99.90;;;;;;5011508;28;20033;-61
2021/12/13 06:44:15;;;;;;;15.23;11.68;;;6.80;99.90;;;;;;5012042;28;20036;-61
2021/12/13 06:46:54;;;;;;;20.70;13.73;;;6.70;99.90;;;;;;5012054;28;20033;-60
2021/12/13 06:49:28;;;;;;;18.30;12.57;;;6.70;99.90;;;;;;5011457;28;20301;-62
2021/12/13 06:52:05;;;;;;;17.35;11.95;;;6.70;99.90;;;;;;5010821;28;20141;-61
2021/12/13 06:54:37;;;;;;;15.55;11.35;;;6.70;99.90;;;;;;5012457;28;20030;-60
2021/12/13 06:57:14;;;;;;;19.23;11.68;;;6.60;99.90;;;;;;5011597;28;20034;-62
2021/12/13 06:59:51;;;;;;;16.75;11.38;;;6.60;99.90;;;;;;5010301;28;20112;-62
2021/12/13 07:02:37;;;;;;;21.55;11.95;;;6.60;99.90;;;;;;5009665;28;20030;-61
2021/12/13 07:05:27;;;;;;;19.98;12.15;;;6.60;99.90;;;;;;5011262;28;20431;-62
2021/12/13 07:07:55;;;;;;;16.65;12.55;;;6.60;99.90;;;;;;5010501;28;20030;-62
2021/12/13 07:10:43;;;;;;;17.48;11.88;;;6.50;99.90;;;;;;5009884;28;20033;-61
2021/12/13 07:13:44;;;;;;;20.80;12.10;;;6.50;99.90;;;;;;5011349;28;20056;-61
2021/12/13 07:16:15;;;;;;;19.98;12.80;;;6.50;99.90;;;;;;5008718;28;20041;-62
2021/12/13 07:18:48;;;;;;;22.15;13.50;;;6.50;99.90;;;;;;5009195;28;20046;-61
2021/12/13 07:21:27;;;;;;;20.48;13.25;;;6.50;99.90;;;;;;5008633;28;20040;-61
2021/12/13 07:24:06;;;;;;;20.33;13.55;;;6.50;99.90;;;;;;5009524;28;20068;-64
2021/12/13 07:26:54;;;;;;;21.05;12.25;;;6.50;99.90;;;;;;5008993;28;20049;-61
2021/12/13 07:29:24;;;;;;;21.50;12.85;;;6.60;99.90;;;;;;5008572;28;20131;-61
2021/12/13 07:32:07;;;;;;;18.42;12.73;;;6.60;99.90;;;;;;5008799;28;20069;-60
2021/12/13 07:34:45;;;;;;;18.40;11.90;;;6.60;99.90;;;;;;5009038;28;20117;-61
2021/12/13 07:37:11;;;;;;;26.75;12.55;;;6.60;99.90;;;;;;5008319;28;20172;-61
2021/12/13 07:39:36;;;;;;;18.33;11.27;;;6.70;99.90;;;;;;5008908;28;20174;-62
2021/12/13 07:42:08;;;;;;;20.88;12.82;;;6.70;99.90;;;;;;5008877;28;20188;-62
2021/12/13 07:44:42;;;;;;;21.50;12.93;;;6.70;99.90;;;;;;5008433;28;20173;-62
2021/12/13 07:47:12;;;;;;;21.48;11.55;;;6.70;99.90;;;;;;5008153;28;20045;-61
2021/12/13 07:49:43;;;;;;;19.15;10.98;;;6.70;99.90;;;;;;5008981;28;20534;-58
2021/12/13 07:52:24;;;;;;;17.23;10.98;;;6.80;99.90;;;;;;5009823;28;20034;-61
2021/12/13 07:54:51;;;;;;;16.40;12.40;;;6.80;99.90;;;;;;5011211;28;20022;-61
2021/12/13 07:57:37;;;;;;;20.35;12.80;;;6.90;99.90;;;;;;5009450;28;20475;-61
2021/12/13 08:00:15;;;;;;;17.40;11.77;;;6.80;99.90;;;;;;5011455;28;20037;-60
2021/12/13 08:02:55;;;;;;;17.80;11.85;;;6.90;99.90;;;;;;5010266;28;20034;-62
2021/12/13 08:05:25;;;;;;;17.48;11.23;;;6.90;99.90;;;;;;5011058;28;20048;-61
2021/12/13 08:07:54;;;;;;;19.75;11.35;;;6.90;99.90;;;;;;5011395;28;20026;-62
2021/12/13 08:10:22;;;;;;;16.35;11.48;;;6.70;99.90;;;;;;5009410;28;20026;-63
2021/12/13 08:13:17;;;;;;;19.88;11.35;;;6.80;99.90;;;;;;5009868;28;20053;-60
2021/12/13 08:15:51;;;;;;;17.90;11.05;;;6.80;99.90;;;;;;5011036;28;20420;-60
2021/12/13 08:18:28;;;;;;;20.98;11.23;;;6.90;99.90;;;;;;5010111;28;20046;-62
2021/12/13 08:21:20;;;;;;;19.67;12.70;;;7.00;99.90;;;;;;5009723;28;20033;-62
2021/12/13 08:23:55;;;;;;;16.75;11.75;;;6.90;99.90;;;;;;5009544;28;20038;-61
2021/12/13 08:26:42;;;;;;;22.75;12.60;;;6.80;99.90;;;;;;5010300;28;20065;-60
2021/12/13 08:29:15;;;;;;;18.10;12.15;;;6.80;99.90;;;;;;5008924;28;20038;-63
2021/12/13 08:31:41;;;;;;;17.13;11.52;;;6.90;99.90;;;;;;5010698;28;20034;-61
2021/12/13 08:34:14;;;;;;;20.35;12.77;;;6.90;99.90;;;;;;5010328;28;20044;-68
2021/12/13 08:36:44;;;;;;;17.58;12.45;;;7.00;99.90;;;;;;5010758;28;20105;-61
2021/12/13 08:39:46;;;;;;;19.30;12.23;;;6.80;99.90;;;;;;5009106;28;20053;-60
2021/12/13 08:42:17;;;;;;;18.05;12.23;;;6.90;99.90;;;;;;5009498;28;20041;-62
2021/12/13 08:44:54;;;;;;;18.00;12.20;;;6.80;99.90;;;;;;5009819;28;20057;-61
2021/12/13 08:47:24;;;;;;;18.20;11.80;;;6.70;99.90;;;;;;5010419;28;20029;-63
2021/12/13 08:49:59;;;;;;;16.55;11.10;;;6.80;99.90;;;;;;5009427;28;20037;-61
2021/12/13 08:52:33;;;;;;;16.55;12.05;;;6.80;99.90;;;;;;5011565;28;20330;-62
2021/12/13 08:55:11;;;;;;;17.33;11.98;;;6.80;99.90;;;;;;5012466;28;20057;-61
2021/12/13 08:58:14;;;;;;;17.80;12.55;;;6.90;99.90;;;;;;5014156;28;20379;-62
2021/12/13 09:00:43;;;;;;;15.30;10.60;;;7.10;99.90;;;;;;5012180;28;20489;-62
2021/12/13 09:03:43;;;;;;;16.98;10.77;;;7.10;99.90;;;;;;5012226;28;20038;-66
2021/12/13 09:06:18;;;;;;;16.48;10.98;;;7.10;99.90;;;;;;5011445;28;20049;-62
2021/12/13 09:08:44;;;;;;;19.02;12.27;;;7.10;99.90;;;;;;5012800;28;20034;-61
2021/12/13 09:11:27;;;;;;;17.98;11.50;;;7.10;99.90;;;;;;5013229;28;20406;-61
2021/12/13 09:14:10;;;;;;;14.63;10.98;;;7.10;99.90;;;;;;5013995;28;20172;-60
2021/12/13 09:16:53;;;;;;;14.02;10.18;;;7.20;99.90;;;;;;5014101;28;20049;-61
2021/12/13 09:19:29;;;;;;;15.35;10.95;;;7.30;99.90;;;;;;5011971;28;20152;-63
2021/12/13 09:22:28;;;;;;;20.05;11.77;;;7.30;99.90;;;;;;5013894;28;20026;-61
2021/12/13 09:24:53;;;;;;;16.45;10.88;;;7.40;99.90;;;;;;5013411;28;20479;-61
2021/12/13 09:27:28;;;;;;;13.80;10.50;;;7.40;99.90;;;;;;5012001;28;20061;-62
2021/12/13 09:30:01;;;;;;;21.08;12.02;;;7.40;99.90;;;;;;5013565;28;20030;-62
2021/12/13 09:32:38;;;;;;;16.67;11.27;;;7.40;99.90;;;;;;5011569;28;20034;-61
2021/12/13 09:35:21;;;;;;;14.85;11.13;;;7.50;99.90;;;;;;5013370;28;20036;-60
2021/12/13 09:37:49;;;;;;;14.25;10.02;;;7.60;99.90;;;;;;5013394;28;20053;-63
2021/12/13 09:40:17;;;;;;;13.98;10.55;;;7.70;99.90;;;;;;5011636;28;20022;-62
2021/12/13 09:42:54;;;;;;;19.05;12.38;;;7.80;99.90;;;;;;5011696;28;20026;-61
2021/12/13 09:45:26;;;;;;;16.48;11.13;;;7.80;99.90;;;;;;5011379;28;20378;-62
2021/12/13 09:47:51;;;;;;;15.88;11.98;;;7.90;99.90;;;;;;5011957;28;20494;-61
2021/12/13 09:50:31;;;;;;;18.58;11.20;;;8.00;99.90;;;;;;5011638;28;20030;-66
2021/12/13 09:53:05;;;;;;;14.60;11.15;;;8.00;99.90;;;;;;5011943;28;20034;-61
2021/12/13 09:55:34;;;;;;;14.07;9.88;;;8.10;99.90;;;;;;5010804;28;20285;-62
2021/12/13 09:58:04;;;;;;;19.80;11.52;;;8.10;99.90;;;;;;4995264;28;20057;-61
2021/12/13 10:00:49;;;;;;;21.88;11.35;;;8.00;99.90;;;;;;5010694;28;20042;-62
2021/12/13 10:03:46;;;;;;;16.95;10.65;;;8.30;99.90;;;;;;5010907;28;20076;-62
2021/12/13 10:06:16;;;;;;;14.40;10.27;;;8.60;99.90;;;;;;5012184;28;20144;-67
2021/12/13 10:09:09;;;;;;;14.63;10.77;;;8.80;99.90;;;;;;5012888;28;20034;-62
2021/12/13 10:11:44;;;;;;;18.20;12.07;;;8.80;99.90;;;;;;5012174;28;20400;-62
2021/12/13 10:14:12;;;;;;;19.17;12.20;;;8.70;99.90;;;;;;5026606;28;20173;-61
2021/12/13 10:16:42;;;;;;;16.83;10.80;;;8.60;99.90;;;;;;5030753;28;20101;-61
2021/12/13 10:19:12;;;;;;;16.13;12.07;;;8.70;99.90;;;;;;5032115;28;20107;-62
2021/12/13 10:21:42;;;;;;;18.42;12.63;;;8.60;99.90;;;;;;5031221;28;20021;-62
2021/12/13 10:24:20;;;;;;;15.02;11.20;;;8.70;99.90;;;;;;5032452;28;20040;-61
2021/12/13 10:26:47;;;;;;;9.95;6.97;;;8.80;99.90;;;;;;5032083;28;20230;-64
2021/12/13 10:29:15;;;;;;;11.88;7.85;;;11.30;99.90;;;;;;5031945;28;20042;-63
2021/12/13 10:32:06;;;;;;;12.95;7.95;;;11.00;99.90;;;;;;5032696;28;20184;-64
2021/12/13 10:34:35;;;;;;;16.35;10.07;;;12.30;99.90;;;;;;5031729;28;20101;-59
2021/12/13 10:37:17;;;;;;;17.05;10.93;;;11.20;99.90;;;;;;5017063;28;20060;-65
2021/12/13 10:39:48;;;;;;;19.83;9.98;;;10.80;99.90;;;;;;5017483;28;20108;-55
2021/12/13 10:42:32;;;;;;;15.63;10.13;;;10.60;99.90;;;;;;5031032;28;20063;-72
2021/12/13 10:45:00;;;;;;;12.82;10.15;;;10.60;99.90;;;;;;5030745;28;20163;-62
2021/12/13 10:47:30;;;;;;;15.93;10.13;;;10.20;99.90;;;;;;5029744;28;20120;-61
2021/12/13 10:49:56;;;;;;;18.33;11.18;;;10.00;99.90;;;;;;5014398;28;20445;-61
2021/12/13 10:52:28;;;;;;;13.93;10.32;;;9.90;99.90;;;;;;5031040;28;20029;-60
2021/12/13 10:54:59;;;;;;;16.30;9.27;;;9.70;99.90;;;;;;5031038;28;20029;-61
2021/12/13 10:57:32;;;;;;;12.05;8.95;;;9.60;99.90;;;;;;5030526;28;20045;-61
2021/12/13 11:00:00;;;;;;;13.20;9.38;;;9.80;99.90;;;;;;5030928;28;20037;-61
2021/12/13 11:02:32;;;;;;;15.65;10.27;;;9.70;99.90;;;;;;5030788;28;20386;-60
2021/12/13 11:05:04;;;;;;;15.38;9.35;;;9.70;99.90;;;;;;5031691;28;20029;-55
2021/12/13 11:07:30;;;;;;;10.25;8.27;;;9.80;99.90;;;;;;5030654;28;20045;-59
2021/12/13 11:09:58;;;;;;;13.60;9.10;;;9.70;99.90;;;;;;5030140;28;20467;-61
2021/12/13 11:12:38;;;;;;;13.77;8.80;;;9.50;99.90;;;;;;5030058;28;20331;-60
2021/12/13 11:15:17;;;;;;;11.27;8.63;;;9.40;99.90;;;;;;5029370;28;20033;-61
2021/12/13 11:17:43;;;;;;;10.43;7.80;;;9.30;99.90;;;;;;5028910;28;20025;-61
2021/12/13 11:20:18;;;;;;;14.90;9.57;;;9.10;99.90;;;;;;5030716;28;20131;-60
2021/12/13 11:22:45;;;;;;;11.52;8.95;;;8.90;99.90;;;;;;5031490;28;20036;-60
2021/12/13 11:25:17;;;;;;;11.15;8.10;;;9.00;99.90;;;;;;5029839;28;20081;-63
2021/12/13 11:27:43;;;;;;;12.90;8.18;;;8.90;99.90;;;;;;5023899;28;20102;-61
2021/12/13 11:30:14;;;;;;;11.30;8.68;;;8.80;99.90;;;;;;5011581;28;20041;-61
2021/12/13 11:32:59;;;;;;;12.73;8.13;;;9.00;99.90;;;;;;5027283;28;20455;-60
2021/12/13 11:36:07;;;;;;;12.35;9.43;;;8.90;99.90;;;;;;5029488;28;20048;-61
2021/12/13 11:39:00;;;;;;;12.60;8.95;;;8.90;99.90;;;;;;5029382;28;20044;-61
2021/12/13 11:41:50;;;;;;;11.75;8.23;;;8.90;99.90;;;;;;5025150;28;20553;-61
2021/12/13 11:44:54;;;;;;;12.25;9.18;;;8.80;99.90;;;;;;5036894;28;20026;-60
2021/12/13 11:47:29;;;;;;;12.30;8.45;;;8.70;99.90;;;;;;5038122;28;20099;-61
2021/12/13 11:50:16;;;;;;;18.55;9.55;;;8.60;99.90;;;;;;5025481;28;20035;-61
2021/12/13 11:53:12;;;;;;;11.30;8.85;;;8.60;99.90;;;;;;5030498;28;20586;-61
2021/12/13 11:56:17;;;;;;;14.35;9.50;;;8.70;99.90;;;;;;5029889;28;20263;-58
2021/12/13 11:59:04;;;;;;;15.35;9.25;;;8.70;99.90;;;;;;5020998;28;20042;-60
2021/12/13 12:02:08;;;;;;;11.90;7.78;;;8.70;99.90;;;;;;5021673;28;20105;-58
2021/12/13 12:05:05;;;;;;;12.68;8.95;;;8.80;99.90;;;;;;5029117;28;20056;-64
2021/12/13 12:08:12;;;;;;;13.07;9.05;;;8.80;99.90;;;;;;5030531;28;20037;-62
2021/12/13 12:11:10;;;;;;;12.50;8.82;;;8.70;99.90;;;;;;5029005;28;20028;-61
2021/12/13 12:13:52;;;;;;;12.35;8.73;;;8.90;99.90;;;;;;5030361;28;20108;-61
2021/12/13 12:16:24;;;;;;;14.77;8.15;;;9.00;99.90;;;;;;5030176;28;20025;-61
2021/12/13 12:18:52;;;;;;;15.23;8.23;;;9.10;99.90;;;;;;5029871;28;20095;-61
2021/12/13 12:21:29;;;;;;;10.13;7.30;;;9.10;99.90;;;;;;5022499;28;20038;-58
2021/12/13 12:23:55;;;;;;;11.38;8.40;;;9.10;99.90;;;;;;5027336;28;20078;-62
2021/12/13 12:26:22;;;;;;;12.57;8.55;;;9.10;99.90;;;;;;5032813;28;20025;-65
2021/12/13 12:28:49;;;;;;;16.25;9.60;;;9.10;99.90;;;;;;5032413;28;20071;-63
2021/12/13 12:31:16;;;;;;;10.73;7.90;;;9.40;99.90;;;;;;5028395;28;20483;-62
2021/12/13 12:33:42;;;;;;;11.57;7.85;;;10.20;99.90;;;;;;5033724;28;20034;-61
2021/12/13 12:36:21;;;;;;;10.27;6.90;;;10.10;99.90;;;;;;5032151;28;20034;-63
2021/12/13 12:39:32;;;;;;;11.52;7.32;;;9.70;99.90;;;;;;5032621;28;20045;-61
2021/12/13 12:42:22;;;;;;;6.53;4.50;;;9.60;99.90;;;;;;5012991;28;20050;-66
2021/12/13 12:44:54;;;;;;;7.03;5.43;;;12.40;99.90;;;;;;5032032;28;20276;-61
2021/12/13 12:47:35;;;;;;;7.75;5.65;;;13.30;99.90;;;;;;5032943;28;20034;-62
2021/12/13 12:50:22;;;;;;;10.05;7.53;;;11.10;99.90;;;;;;5033262;28;20133;-61
2021/12/13 12:53:07;;;;;;;9.35;7.30;;;10.20;99.90;;;;;;5033990;28;20048;-60
2021/12/13 12:55:38;;;;;;;9.88;7.05;;;9.90;99.90;;;;;;5020890;28;20045;-61
2021/12/13 12:58:29;;;;;;;9.13;6.38;;;9.70;99.90;;;;;;5033532;28;20026;-62
2021/12/13 13:01:00;;;;;;;9.73;7.50;;;9.40;99.90;;;;;;5020381;28;20209;-61
2021/12/13 13:03:34;;;;;;;11.43;7.93;;;9.20;99.90;;;;;;5031418;28;20053;-61
2021/12/13 13:06:05;;;;;;;8.55;6.28;;;9.40;99.90;;;;;;5032233;28;20033;-59
2021/12/13 13:08:35;;;;;;;9.95;7.25;;;9.30;99.90;;;;;;5034202;28;20029;-61
2021/12/13 13:13:48;;;;;;;10.10;7.40;;;9.20;99.90;;;;;;5032504;28;20481;-62
2021/12/13 13:16:17;;;;;;;10.18;6.82;;;9.30;99.90;;;;;;5032226;28;20033;-61
2021/12/13 13:18:44;;;;;;;12.75;6.80;;;9.20;99.90;;;;;;5032345;28;20684;-60
2021/12/13 13:21:10;;;;;;;10.10;7.35;;;9.20;99.90;;;;;;5033498;28;20037;-60
2021/12/13 13:23:47;;;;;;;9.75;6.80;;;9.10;99.90;;;;;;5032489;28;20485;-61
2021/12/13 13:26:16;;;;;;;11.32;7.72;;;9.00;99.90;;;;;;5033479;28;20079;-64
2021/12/13 13:28:46;;;;;;;10.80;7.50;;;9.00;99.90;;;;;;5031948;28;20052;-61
2021/12/13 13:31:18;;;;;;;10.52;7.05;;;9.10;99.90;;;;;;5048748;28;20033;-63
2021/12/13 13:33:45;;;;;;;11.20;7.40;;;9.20;99.90;;;;;;5033068;28;20159;-61
2021/12/13 13:36:23;;;;;;;13.75;8.57;;;9.20;99.90;;;;;;5032835;28;20091;-63